sensor_id;sensor_type;location;lat;lon;timestamp;pressure;altitude;pressure_sealevel;temperature;humidity
47763;BME280;33526;42.690;23.322;2023-06-14T00:02:00;94801.50;;;16.63;100.00
47763;BME280;33526;42.690;23.322;2023-06-14T00:04:44;94815.63;;;16.69;100.00
47763;BME280;33526;42.690;23.322;2023-06-14T00:07:16;94758.72;;;16.42;100.00
47763;BME280;33526;42.690;23.322;2023-06-14T00:09:48;94710.78;;;16.09;100.00
47763;BME280;33526;42.690;23.322;2023-06-14T00:12:43;94706.44;;;16.08;100.00
47763;BME280;33526;42.690;23.322;2023-06-14T00:15:14;94721.81;;;16.18;100.00
47763;BME280;33526;42.690;23.322;2023-06-14T00:17:47;94706.44;;;16.08;100.00
47763;BME280;33526;42.690;23.322;2023-06-14T00:20:35;94693.88;;;16.03;100.00
47763;BME280;33526;42.690;23.322;2023-06-14T00:27:26;94719.22;;;16.20;100.00
47763;BME280;33526;42.690;23.322;2023-06-14T00:29:56;94705.66;;;16.07;100.00
47763;BME280;33526;42.690;23.322;2023-06-14T00:32:23;94720.53;;;16.19;100.00
47763;BME280;33526;42.690;23.322;2023-06-14T00:35:07;94739.72;;;16.37;100.00
47763;BME280;33526;42.690;23.322;2023-06-14T00:37:40;94660.56;;;15.73;100.00
47763;BME280;33526;42.690;23.322;2023-06-14T00:40:17;94719.47;;;16.22;100.00
47763;BME280;33526;42.690;23.322;2023-06-14T00:42:51;94704.09;;;16.29;100.00
47763;BME280;33526;42.690;23.322;2023-06-14T00:51:00;94792.75;;;16.90;100.00
47763;BME280;33526;42.690;23.322;2023-06-14T00:55:55;94655.19;;;15.92;100.00
47763;BME280;33526;42.690;23.322;2023-06-14T00:58:38;94707.94;;;16.31;100.00
47763;BME280;33526;42.690;23.322;2023-06-14T01:01:04;94699.47;;;16.31;100.00
47763;BME280;33526;42.690;23.322;2023-06-14T01:03:38;94756.34;;;16.63;100.00
47763;BME280;33526;42.690;23.322;2023-06-14T01:06:38;94656.22;;;15.89;100.00
47763;BME280;33526;42.690;23.322;2023-06-14T01:40:38;94650.34;;;15.76;100.00
47763;BME280;33526;42.690;23.322;2023-06-14T01:43:34;94737.72;;;16.15;100.00
47763;BME280;33526;42.690;23.322;2023-06-14T01:46:43;94696.94;;;15.88;100.00
47763;BME280;33526;42.690;23.322;2023-06-14T01:49:11;94676.97;;;15.75;100.00
47763;BME280;33526;42.690;23.322;2023-06-14T01:51:43;94732.06;;;16.10;100.00
47763;BME280;33526;42.690;23.322;2023-06-14T01:54:49;94719.25;;;16.09;100.00
47763;BME280;33526;42.690;23.322;2023-06-14T01:57:40;94783.06;;;16.29;100.00
47763;BME280;33526;42.690;23.322;2023-06-14T02:00:13;94669.53;;;15.38;100.00
47763;BME280;33526;42.690;23.322;2023-06-14T02:02:58;94705.13;;;15.69;100.00
47763;BME280;33526;42.690;23.322;2023-06-14T02:05:40;94667.47;;;15.33;100.00
47763;BME280;33526;42.690;23.322;2023-06-14T02:08:12;94666.69;;;15.32;100.00
47763;BME280;33526;42.690;23.322;2023-06-14T02:10:41;94766.41;;;15.97;100.00
47763;BME280;33526;42.690;23.322;2023-06-14T02:13:13;94739.50;;;15.96;100.00
47763;BME280;33526;42.690;23.322;2023-06-14T02:15:44;94675.16;;;15.60;100.00
47763;BME280;33526;42.690;23.322;2023-06-14T02:18:22;94752.06;;;15.89;100.00
47763;BME280;33526;42.690;23.322;2023-06-14T02:20:48;94814.63;;;16.16;100.00
47763;BME280;33526;42.690;23.322;2023-06-14T02:23:31;94678.69;;;15.10;100.00
47763;BME280;33526;42.690;23.322;2023-06-14T02:25:57;94771.78;;;15.78;100.00
47763;BME280;33526;42.690;23.322;2023-06-14T02:28:27;94680.00;;;15.26;100.00
47763;BME280;33526;42.690;23.322;2023-06-14T02:31:35;94811.03;;;16.21;100.00
47763;BME280;33526;42.690;23.322;2023-06-14T02:36:39;94694.09;;;15.43;100.00
47763;BME280;33526;42.690;23.322;2023-06-14T02:39:09;94741.50;;;15.56;100.00
47763;BME280;33526;42.690;23.322;2023-06-14T02:41:36;94818.97;;;16.05;100.00
47763;BME280;33526;42.690;23.322;2023-06-14T02:44:01;94807.16;;;16.07;100.00
47763;BME280;33526;42.690;23.322;2023-06-14T02:46:27;94751.50;;;15.62;100.00
47763;BME280;33526;42.690;23.322;2023-06-14T02:48:52;94806.41;;;16.07;100.00
47763;BME280;33526;42.690;23.322;2023-06-14T02:51:20;94733.81;;;15.56;100.00
47763;BME280;33526;42.690;23.322;2023-06-14T02:53:46;94815.63;;;16.01;100.00
47763;BME280;33526;42.690;23.322;2023-06-14T02:56:12;94813.56;;;16.08;100.00
47763;BME280;33526;42.690;23.322;2023-06-14T02:58:38;94784.84;;;15.81;100.00
47763;BME280;33526;42.690;23.322;2023-06-14T03:01:05;94811.81;;;16.04;100.00
47763;BME280;33526;42.690;23.322;2023-06-14T03:03:33;94786.66;;;15.84;100.00
47763;BME280;33526;42.690;23.322;2023-06-14T03:05:58;94782.31;;;15.83;100.00
47763;BME280;33526;42.690;23.322;2023-06-14T03:08:30;94741.22;;;15.48;100.00
47763;BME280;33526;42.690;23.322;2023-06-14T03:10:57;94698.13;;;15.08;100.00
47763;BME280;33526;42.690;23.322;2023-06-14T03:13:23;94734.81;;;15.36;100.00
47763;BME280;33526;42.690;23.322;2023-06-14T03:15:49;94819.22;;;15.96;100.00
47763;BME280;33526;42.690;23.322;2023-06-14T03:18:17;94712.78;;;15.23;100.00
47763;BME280;33526;42.690;23.322;2023-06-14T03:20:47;94795.06;;;15.73;100.00
47763;BME280;33526;42.690;23.322;2023-06-14T03:23:13;94793.59;;;15.83;100.00
47763;BME280;33526;42.690;23.322;2023-06-14T03:25:39;94744.06;;;15.59;100.00
47763;BME280;33526;42.690;23.322;2023-06-14T03:28:07;94722.56;;;15.51;100.00
47763;BME280;33526;42.690;23.322;2023-06-14T03:30:33;94740.22;;;15.62;100.00
47763;BME280;33526;42.690;23.322;2023-06-14T03:32:59;94811.00;;;16.10;100.00
47763;BME280;33526;42.690;23.322;2023-06-14T03:35:28;94747.16;;;15.67;100.00
47763;BME280;33526;42.690;23.322;2023-06-14T03:37:55;94807.44;;;16.15;100.00
47763;BME280;33526;42.690;23.322;2023-06-14T03:40:21;94771.53;;;15.87;100.00
47763;BME280;33526;42.690;23.322;2023-06-14T03:42:50;94761.53;;;15.86;100.00
47763;BME280;33526;42.690;23.322;2023-06-14T03:45:16;94763.09;;;15.81;100.00
47763;BME280;33526;42.690;23.322;2023-06-14T03:47:43;94840.25;;;16.29;100.00
47763;BME280;33526;42.690;23.322;2023-06-14T03:50:09;94787.94;;;16.05;100.00
47763;BME280;33526;42.690;23.322;2023-06-14T03:52:35;94741.53;;;15.73;100.00
47763;BME280;33526;42.690;23.322;2023-06-14T03:55:00;94744.13;;;15.82;100.00
47763;BME280;33526;42.690;23.322;2023-06-14T03:57:26;94723.06;;;15.66;100.00
47763;BME280;33526;42.690;23.322;2023-06-14T03:59:52;94749.00;;;15.76;100.00
47763;BME280;33526;42.690;23.322;2023-06-14T04:02:17;94772.31;;;15.99;100.00
47763;BME280;33526;42.690;23.322;2023-06-14T04:04:44;94793.59;;;16.28;100.00
47763;BME280;33526;42.690;23.322;2023-06-14T04:07:13;94841.28;;;16.49;100.00
47763;BME280;33526;42.690;23.322;2023-06-14T04:09:39;94841.28;;;16.54;100.00
47763;BME280;33526;42.690;23.322;2023-06-14T04:12:06;94756.16;;;16.11;100.00
47763;BME280;33526;42.690;23.322;2023-06-14T04:14:32;94838.69;;;16.85;100.00
47763;BME280;33526;42.690;23.322;2023-06-14T04:17:00;94766.41;;;16.48;100.00
47763;BME280;33526;42.690;23.322;2023-06-14T04:19:26;94702.09;;;16.07;100.00
47763;BME280;33526;42.690;23.322;2023-06-14T04:21:51;94716.66;;;16.33;100.00
47763;BME280;33526;42.690;23.322;2023-06-14T04:24:17;94782.44;;;17.04;100.00
47763;BME280;33526;42.690;23.322;2023-06-14T04:26:43;94845.19;;;17.49;100.00
47763;BME280;33526;42.690;23.322;2023-06-14T04:29:14;94761.28;;;17.27;100.00
47763;BME280;33526;42.690;23.322;2023-06-14T04:31:41;94796.50;;;18.15;96.78
47763;BME280;33526;42.690;23.322;2023-06-14T04:34:07;94855.41;;;18.47;93.88
47763;BME280;33526;42.690;23.322;2023-06-14T04:36:33;94789.59;;;18.10;94.05
47763;BME280;33526;42.690;23.322;2023-06-14T04:39:07;94747.41;;;17.71;94.90
47763;BME280;33526;42.690;23.322;2023-06-14T04:41:34;94787.84;;;18.02;92.76
47763;BME280;33526;42.690;23.322;2023-06-14T04:44:00;94841.31;;;18.71;91.64
47763;BME280;33526;42.690;23.322;2023-06-14T04:46:28;94791.03;;;18.53;89.84
47763;BME280;33526;42.690;23.322;2023-06-14T04:48:54;94761.59;;;18.37;88.88
47763;BME280;33526;42.690;23.322;2023-06-14T04:51:20;94820.00;;;18.95;87.73
47763;BME280;33526;42.690;23.322;2023-06-14T04:53:57;94805.47;;;19.29;85.74
47763;BME280;33526;42.690;23.322;2023-06-14T04:56:24;94843.78;;;19.79;82.24
47763;BME280;33526;42.690;23.322;2023-06-14T04:59:00;94850.28;;;20.12;81.18
47763;BME280;33526;42.690;23.322;2023-06-14T05:01:25;94809.50;;;19.77;81.24
47763;BME280;33526;42.690;23.322;2023-06-14T05:03:52;94836.75;;;19.61;84.87
47763;BME280;33526;42.690;23.322;2023-06-14T05:06:20;94747.63;;;18.94;83.20
47763;BME280;33526;42.690;23.322;2023-06-14T05:08:47;94795.19;;;19.01;84.81
47763;BME280;33526;42.690;23.322;2023-06-14T05:11:15;94796.63;;;18.89;83.24
47763;BME280;33526;42.690;23.322;2023-06-14T05:13:42;94778.84;;;18.64;85.62
47763;BME280;33526;42.690;23.322;2023-06-14T05:16:10;94842.66;;;18.95;86.39
47763;BME280;33526;42.690;23.322;2023-06-14T05:18:36;94802.28;;;19.14;85.67
47763;BME280;33526;42.690;23.322;2023-06-14T05:21:02;94816.75;;;19.54;82.69
47763;BME280;33526;42.690;23.322;2023-06-14T05:23:29;94868.28;;;20.34;81.54
47763;BME280;33526;42.690;23.322;2023-06-14T05:25:55;94857.06;;;20.41;80.54
47763;BME280;33526;42.690;23.322;2023-06-14T05:28:22;94873.53;;;20.94;77.28
47763;BME280;33526;42.690;23.322;2023-06-14T05:30:48;94829.38;;;20.80;76.42
47763;BME280;33526;42.690;23.322;2023-06-14T05:33:15;94858.00;;;20.95;74.94
47763;BME280;33526;42.690;23.322;2023-06-14T05:35:41;94897.38;;;21.05;75.05
47763;BME280;33526;42.690;23.322;2023-06-14T05:38:07;94848.75;;;20.43;75.23
47763;BME280;33526;42.690;23.322;2023-06-14T05:40:33;94887.44;;;20.47;76.80
47763;BME280;33526;42.690;23.322;2023-06-14T05:43:00;94853.91;;;19.94;78.86
47763;BME280;33526;42.690;23.322;2023-06-14T05:45:30;94786.44;;;19.24;82.16
47763;BME280;33526;42.690;23.322;2023-06-14T05:47:56;94862.91;;;19.73;80.54
47763;BME280;33526;42.690;23.322;2023-06-14T05:50:22;94890.63;;;20.05;80.48
47763;BME280;33526;42.690;23.322;2023-06-14T05:52:47;94811.66;;;19.03;83.17
47763;BME280;33526;42.690;23.322;2023-06-14T05:55:13;94897.13;;;19.32;85.50
47763;BME280;33526;42.690;23.322;2023-06-14T05:57:39;94816.53;;;18.78;86.60
47763;BME280;33526;42.690;23.322;2023-06-14T06:00:06;94898.84;;;18.91;89.57
47763;BME280;33526;42.690;23.322;2023-06-14T06:02:43;94899.06;;;18.93;89.60
47763;BME280;33526;42.690;23.322;2023-06-14T06:05:12;94804.94;;;18.51;89.54
47763;BME280;33526;42.690;23.322;2023-06-14T06:07:38;94830.16;;;18.49;90.02
47763;BME280;33526;42.690;23.322;2023-06-14T06:10:06;94776.13;;;18.22;88.63
47763;BME280;33526;42.690;23.322;2023-06-14T06:12:31;94879.97;;;19.24;87.03
47763;BME280;33526;42.690;23.322;2023-06-14T06:14:59;94849.84;;;19.21;86.25
47763;BME280;33526;42.690;23.322;2023-06-14T06:17:25;94899.56;;;19.46;86.33
47763;BME280;33526;42.690;23.322;2023-06-14T06:19:54;94783.06;;;18.21;87.50
47763;BME280;33526;42.690;23.322;2023-06-14T06:22:23;94877.50;;;19.15;86.95
47763;BME280;33526;42.690;23.322;2023-06-14T06:24:49;94838.34;;;18.88;87.14
47763;BME280;33526;42.690;23.322;2023-06-14T06:27:15;94867.44;;;19.14;85.90
47763;BME280;33526;42.690;23.322;2023-06-14T06:29:42;94860.34;;;19.26;85.24
47763;BME280;33526;42.690;23.322;2023-06-14T06:32:10;94908.41;;;19.37;86.06
47763;BME280;33526;42.690;23.322;2023-06-14T06:34:36;94881.44;;;19.06;86.37
47763;BME280;33526;42.690;23.322;2023-06-14T06:37:02;94830.69;;;18.78;86.39
47763;BME280;33526;42.690;23.322;2023-06-14T06:39:28;94845.31;;;19.12;85.50
47763;BME280;33526;42.690;23.322;2023-06-14T06:41:54;94855.28;;;19.19;84.81
47763;BME280;33526;42.690;23.322;2023-06-14T06:44:22;94851.25;;;19.08;84.39
47763;BME280;33526;42.690;23.322;2023-06-14T06:46:47;94820.16;;;19.27;83.32
47763;BME280;33526;42.690;23.322;2023-06-14T06:49:13;94850.63;;;19.65;82.68
47763;BME280;33526;42.690;23.322;2023-06-14T06:51:41;94912.31;;;19.83;82.37
47763;BME280;33526;42.690;23.322;2023-06-14T06:54:08;94830.22;;;19.47;82.97
47763;BME280;33526;42.690;23.322;2023-06-14T06:56:34;94862.41;;;19.94;81.94
47763;BME280;33526;42.690;23.322;2023-06-14T06:59:00;94867.31;;;20.12;81.04
47763;BME280;33526;42.690;23.322;2023-06-14T07:01:34;94850.50;;;20.14;79.41
47763;BME280;33526;42.690;23.322;2023-06-14T07:04:04;94808.78;;;20.09;79.01
47763;BME280;33526;42.690;23.322;2023-06-14T07:06:31;94875.91;;;20.77;75.98
47763;BME280;33526;42.690;23.322;2023-06-14T07:17:30;94909.69;;;22.06;72.03
47763;BME280;33526;42.690;23.322;2023-06-14T07:20:34;94778.66;;;20.84;72.30
47763;BME280;33526;42.690;23.322;2023-06-14T07:26:13;94909.16;;;21.94;70.89
47763;BME280;33526;42.690;23.322;2023-06-14T07:32:02;94914.69;;;22.40;69.83
47763;BME280;33526;42.690;23.322;2023-06-14T07:34:47;94901.66;;;22.66;69.14
47763;BME280;33526;42.690;23.322;2023-06-14T07:37:38;94895.06;;;22.71;68.86
47763;BME280;33526;42.690;23.322;2023-06-14T07:40:24;94850.09;;;22.77;67.48
47763;BME280;33526;42.690;23.322;2023-06-14T07:43:33;94901.25;;;23.04;66.98
47763;BME280;33526;42.690;23.322;2023-06-14T07:46:17;94856.91;;;22.05;69.23
47763;BME280;33526;42.690;23.322;2023-06-14T07:49:22;94777.03;;;21.15;70.42
47763;BME280;33526;42.690;23.322;2023-06-14T07:52:03;94794.19;;;21.63;68.72
47763;BME280;33526;42.690;23.322;2023-06-14T07:54:33;94876.16;;;22.60;67.36
47763;BME280;33526;42.690;23.322;2023-06-14T07:57:01;94871.41;;;22.63;67.17
47763;BME280;33526;42.690;23.322;2023-06-14T07:59:28;94872.44;;;22.31;67.50
47763;BME280;33526;42.690;23.322;2023-06-14T08:01:53;94797.69;;;22.38;67.01
47763;BME280;33526;42.690;23.322;2023-06-14T08:04:21;94866.59;;;23.42;64.29
47763;BME280;33526;42.690;23.322;2023-06-14T08:07:11;94835.09;;;22.98;64.10
47763;BME280;33526;42.690;23.322;2023-06-14T08:09:38;94878.19;;;22.73;64.50
47763;BME280;33526;42.690;23.322;2023-06-14T08:12:07;94817.63;;;22.38;64.52
47763;BME280;33526;42.690;23.322;2023-06-14T08:14:42;94882.97;;;22.78;65.50
47763;BME280;33526;42.690;23.322;2023-06-14T08:17:16;94804.38;;;22.62;63.79
47763;BME280;33526;42.690;23.322;2023-06-14T08:28:50;94839.69;;;21.50;67.14
47763;BME280;33526;42.690;23.322;2023-06-14T08:34:31;94810.56;;;20.90;68.54
47763;BME280;33526;42.690;23.322;2023-06-14T08:39:53;94917.94;;;21.70;67.08
47763;BME280;33526;42.690;23.322;2023-06-14T08:44:55;94863.53;;;21.87;67.01
47763;BME280;33526;42.690;23.322;2023-06-14T08:47:59;94926.44;;;22.58;64.58
47763;BME280;33526;42.690;23.322;2023-06-14T09:39:03;94780.91;;;23.55;57.40
47763;BME280;33526;42.690;23.322;2023-06-14T09:42:56;94892.56;;;24.32;57.55
47763;BME280;33526;42.690;23.322;2023-06-14T09:53:07;94877.19;;;24.43;57.52
47763;BME280;33526;42.690;23.322;2023-06-14T09:56:53;94878.06;;;24.15;57.99
47763;BME280;33526;42.690;23.322;2023-06-14T10:00:17;94867.25;;;23.56;58.81
47763;BME280;33526;42.690;23.322;2023-06-14T10:03:29;94809.16;;;23.38;59.26
47763;BME280;33526;42.690;23.322;2023-06-14T10:05:58;94869.03;;;23.95;57.77
47763;BME280;33526;42.690;23.322;2023-06-14T10:08:27;94855.66;;;23.82;58.05
47763;BME280;33526;42.690;23.322;2023-06-14T10:10:56;94844.53;;;24.08;57.71
47763;BME280;33526;42.690;23.322;2023-06-14T10:13:21;94835.16;;;24.59;56.44
47763;BME280;33526;42.690;23.322;2023-06-14T10:21:05;94848.78;;;24.22;56.30
47763;BME280;33526;42.690;23.322;2023-06-14T10:23:37;94848.16;;;23.72;58.47
47763;BME280;33526;42.690;23.322;2023-06-14T10:26:05;94827.19;;;23.69;58.70
47763;BME280;33526;42.690;23.322;2023-06-14T10:28:31;94820.94;;;23.71;57.79
47763;BME280;33526;42.690;23.322;2023-06-14T10:34:01;94847.63;;;24.25;57.07
47763;BME280;33526;42.690;23.322;2023-06-14T10:36:29;94842.31;;;24.29;57.42
47763;BME280;33526;42.690;23.322;2023-06-14T10:39:18;94842.41;;;24.60;55.94
47763;BME280;33526;42.690;23.322;2023-06-14T10:41:55;94847.56;;;24.61;55.44
47763;BME280;33526;42.690;23.322;2023-06-14T10:46:47;94834.06;;;25.00;56.84
47763;BME280;33526;42.690;23.322;2023-06-14T10:49:20;94815.00;;;24.72;54.66
47763;BME280;33526;42.690;23.322;2023-06-14T10:52:02;94848.13;;;24.60;54.24
47763;BME280;33526;42.690;23.322;2023-06-14T10:54:28;94828.56;;;24.20;55.84
47763;BME280;33526;42.690;23.322;2023-06-14T10:56:53;94813.31;;;24.10;55.12
47763;BME280;33526;42.690;23.322;2023-06-14T10:59:20;94784.22;;;24.27;53.87
47763;BME280;33526;42.690;23.322;2023-06-14T11:05:03;94812.91;;;25.27;54.32
47763;BME280;33526;42.690;23.322;2023-06-14T11:10:26;94804.16;;;25.88;51.90
47763;BME280;33526;42.690;23.322;2023-06-14T11:12:59;94798.19;;;26.09;51.79
47763;BME280;33526;42.690;23.322;2023-06-14T11:15:31;94799.25;;;25.73;51.32
47763;BME280;33526;42.690;23.322;2023-06-14T11:18:00;94760.66;;;25.34;52.91
47763;BME280;33526;42.690;23.322;2023-06-14T11:20:26;94803.97;;;25.86;52.43
47763;BME280;33526;42.690;23.322;2023-06-14T11:22:53;94776.97;;;25.56;50.41
47763;BME280;33526;42.690;23.322;2023-06-14T11:25:19;94794.00;;;25.24;51.55
47763;BME280;33526;42.690;23.322;2023-06-14T11:27:45;94786.41;;;24.72;52.91
47763;BME280;33526;42.690;23.322;2023-06-14T11:30:11;94762.00;;;24.56;53.96
47763;BME280;33526;42.690;23.322;2023-06-14T11:32:37;94718.94;;;24.38;53.57
47763;BME280;33526;42.690;23.322;2023-06-14T11:35:04;94783.16;;;24.68;53.88
47763;BME280;33526;42.690;23.322;2023-06-14T11:37:35;94799.38;;;24.66;53.07
47763;BME280;33526;42.690;23.322;2023-06-14T11:40:03;94797.84;;;24.88;52.98
47763;BME280;33526;42.690;23.322;2023-06-14T11:42:31;94782.38;;;25.06;51.92
47763;BME280;33526;42.690;23.322;2023-06-14T11:44:57;94722.16;;;24.50;52.61
47763;BME280;33526;42.690;23.322;2023-06-14T11:47:22;94778.97;;;24.69;52.59
47763;BME280;33526;42.690;23.322;2023-06-14T11:49:48;94762.97;;;24.66;53.45
47763;BME280;33526;42.690;23.322;2023-06-14T11:52:14;94769.63;;;24.92;54.07
47763;BME280;33526;42.690;23.322;2023-06-14T11:54:39;94770.00;;;25.11;53.03
47763;BME280;33526;42.690;23.322;2023-06-14T11:57:07;94754.75;;;25.01;51.49
47763;BME280;33526;42.690;23.322;2023-06-14T11:59:38;94752.28;;;25.05;52.21
47763;BME280;33526;42.690;23.322;2023-06-14T12:02:04;94721.63;;;24.83;51.77
47763;BME280;33526;42.690;23.322;2023-06-14T12:04:30;94747.72;;;25.02;52.28
47763;BME280;33526;42.690;23.322;2023-06-14T12:06:56;94756.63;;;25.22;52.13
47763;BME280;33526;42.690;23.322;2023-06-14T12:09:23;94742.13;;;25.35;51.19
47763;BME280;33526;42.690;23.322;2023-06-14T12:11:51;94694.53;;;25.07;51.18
47763;BME280;33526;42.690;23.322;2023-06-14T12:14:28;94740.56;;;25.49;51.91
47763;BME280;33526;42.690;23.322;2023-06-14T12:17:04;94697.63;;;24.70;51.47
47763;BME280;33526;42.690;23.322;2023-06-14T12:19:31;94731.66;;;25.14;51.24
47763;BME280;33526;42.690;23.322;2023-06-14T12:21:59;94733.97;;;25.08;51.83
47763;BME280;33526;42.690;23.322;2023-06-14T12:24:29;94723.38;;;25.49;51.31
47763;BME280;33526;42.690;23.322;2023-06-14T12:26:57;94722.13;;;25.19;51.48
47763;BME280;33526;42.690;23.322;2023-06-14T12:29:25;94716.19;;;25.33;50.82
47763;BME280;33526;42.690;23.322;2023-06-14T12:31:50;94725.94;;;25.37;50.76
47763;BME280;33526;42.690;23.322;2023-06-14T12:34:16;94730.47;;;25.41;50.50
47763;BME280;33526;42.690;23.322;2023-06-14T12:36:41;94708.19;;;25.24;50.83
47763;BME280;33526;42.690;23.322;2023-06-14T12:39:10;94718.22;;;25.55;50.81
47763;BME280;33526;42.690;23.322;2023-06-14T12:41:35;94716.56;;;25.45;51.31
47763;BME280;33526;42.690;23.322;2023-06-14T12:44:01;94695.56;;;25.42;51.56
47763;BME280;33526;42.690;23.322;2023-06-14T12:46:30;94711.09;;;25.72;50.66
47763;BME280;33526;42.690;23.322;2023-06-14T12:48:56;94684.59;;;25.64;49.31
47763;BME280;33526;42.690;23.322;2023-06-14T12:51:22;94696.13;;;25.48;49.32
47763;BME280;33526;42.690;23.322;2023-06-14T12:53:47;94680.38;;;25.32;49.90
47763;BME280;33526;42.690;23.322;2023-06-14T12:56:14;94679.50;;;25.54;49.87
47763;BME280;33526;42.690;23.322;2023-06-14T12:58:40;94705.59;;;25.59;50.17
47763;BME280;33526;42.690;23.322;2023-06-14T13:01:06;94653.00;;;24.98;50.43
47763;BME280;33526;42.690;23.322;2023-06-14T13:03:44;94682.50;;;25.16;50.95
47763;BME280;33526;42.690;23.322;2023-06-14T13:06:10;94700.50;;;25.49;51.62
47763;BME280;33526;42.690;23.322;2023-06-14T13:08:35;94673.25;;;25.48;50.79
47763;BME280;33526;42.690;23.322;2023-06-14T13:11:00;94706.56;;;26.02;50.74
47763;BME280;33526;42.690;23.322;2023-06-14T13:13:26;94710.16;;;26.10;50.87
47763;BME280;33526;42.690;23.322;2023-06-14T13:15:51;94686.50;;;26.09;48.32
47763;BME280;33526;42.690;23.322;2023-06-14T13:18:17;94684.56;;;26.12;49.39
47763;BME280;33526;42.690;23.322;2023-06-14T13:20:42;94713.97;;;26.38;49.36
47763;BME280;33526;42.690;23.322;2023-06-14T13:23:09;94720.69;;;26.32;49.23
47763;BME280;33526;42.690;23.322;2023-06-14T13:25:36;94736.59;;;25.85;52.49
47763;BME280;33526;42.690;23.322;2023-06-14T13:28:04;94754.94;;;25.34;55.51
47763;BME280;33526;42.690;23.322;2023-06-14T13:30:31;94749.78;;;25.09;57.21
47763;BME280;33526;42.690;23.322;2023-06-14T13:32:56;94752.09;;;24.65;57.58
47763;BME280;33526;42.690;23.322;2023-06-14T13:35:26;94744.38;;;24.05;60.96
47763;BME280;33526;42.690;23.322;2023-06-14T13:37:56;94746.06;;;23.49;64.04
47763;BME280;33526;42.690;23.322;2023-06-14T13:40:22;94745.78;;;23.03;68.30
47763;BME280;33526;42.690;23.322;2023-06-14T13:42:50;94745.75;;;22.45;71.99
47763;BME280;33526;42.690;23.322;2023-06-14T13:45:22;94752.31;;;22.19;75.26
47763;BME280;33526;42.690;23.322;2023-06-14T13:47:52;94747.75;;;21.82;81.23
47763;BME280;33526;42.690;23.322;2023-06-14T13:50:24;94738.31;;;21.52;82.63
47763;BME280;33526;42.690;23.322;2023-06-14T13:52:49;94741.81;;;21.32;81.86
47763;BME280;33526;42.690;23.322;2023-06-14T13:55:18;94752.25;;;20.89;83.88
47763;BME280;33526;42.690;23.322;2023-06-14T13:57:46;94727.19;;;20.61;84.38
47763;BME280;33526;42.690;23.322;2023-06-14T14:00:23;94751.88;;;20.66;86.41
47763;BME280;33526;42.690;23.322;2023-06-14T14:02:57;94754.41;;;20.70;87.36
47763;BME280;33526;42.690;23.322;2023-06-14T14:05:27;94741.06;;;20.65;87.35
47763;BME280;33526;42.690;23.322;2023-06-14T14:07:55;94736.72;;;20.77;89.04
47763;BME280;33526;42.690;23.322;2023-06-14T14:10:21;94774.72;;;21.14;87.07
47763;BME280;33526;42.690;23.322;2023-06-14T14:12:49;94773.88;;;21.19;85.59
47763;BME280;33526;42.690;23.322;2023-06-14T14:15:16;94789.50;;;21.26;86.25
47763;BME280;33526;42.690;23.322;2023-06-14T14:17:41;94755.84;;;21.03;88.77
47763;BME280;33526;42.690;23.322;2023-06-14T14:20:07;94764.47;;;21.24;83.95
47763;BME280;33526;42.690;23.322;2023-06-14T14:22:34;94798.78;;;21.39;81.29
47763;BME280;33526;42.690;23.322;2023-06-14T14:25:00;94787.63;;;21.42;79.63
47763;BME280;33526;42.690;23.322;2023-06-14T14:27:28;94787.63;;;21.42;80.55
47763;BME280;33526;42.690;23.322;2023-06-14T14:29:58;94778.91;;;21.39;82.85
47763;BME280;33526;42.690;23.322;2023-06-14T14:32:23;94796.16;;;21.42;78.64
47763;BME280;33526;42.690;23.322;2023-06-14T14:34:49;94786.13;;;21.27;78.89
47763;BME280;33526;42.690;23.322;2023-06-14T14:37:17;94801.63;;;21.26;79.79
47763;BME280;33526;42.690;23.322;2023-06-14T14:39:43;94804.16;;;21.16;80.13
47763;BME280;33526;42.690;23.322;2023-06-14T14:42:09;94800.13;;;21.25;81.22
47763;BME280;33526;42.690;23.322;2023-06-14T14:44:36;94798.34;;;21.35;80.06
47763;BME280;33526;42.690;23.322;2023-06-14T14:47:01;94798.81;;;21.13;79.96
47763;BME280;33526;42.690;23.322;2023-06-14T14:49:31;94803.06;;;21.33;81.19
47763;BME280;33526;42.690;23.322;2023-06-14T14:51:59;94806.91;;;21.49;80.81
47763;BME280;33526;42.690;23.322;2023-06-14T14:54:25;94803.47;;;21.37;76.51
47763;BME280;33526;42.690;23.322;2023-06-14T14:56:51;94804.47;;;21.39;79.12
47763;BME280;33526;42.690;23.322;2023-06-14T14:59:20;94820.13;;;21.60;76.98
47763;BME280;33526;42.690;23.322;2023-06-14T15:01:52;94810.94;;;21.27;76.94
47763;BME280;33526;42.690;23.322;2023-06-14T15:04:21;94823.06;;;21.41;80.55
47763;BME280;33526;42.690;23.322;2023-06-14T15:06:58;94814.31;;;21.25;78.94
47763;BME280;33526;42.690;23.322;2023-06-14T15:09:24;94815.84;;;21.26;79.34
47763;BME280;33526;42.690;23.322;2023-06-14T15:11:51;94795.97;;;20.99;82.09
47763;BME280;33526;42.690;23.322;2023-06-14T15:14:27;94809.75;;;21.09;82.57
47763;BME280;33526;42.690;23.322;2023-06-14T15:16:55;94794.09;;;21.02;83.88
47763;BME280;33526;42.690;23.322;2023-06-14T15:19:26;94788.94;;;21.00;85.28
47763;BME280;33526;42.690;23.322;2023-06-14T15:21:51;94810.94;;;21.13;85.22
47763;BME280;33526;42.690;23.322;2023-06-14T15:24:21;94816.94;;;21.10;87.22
47763;BME280;33526;42.690;23.322;2023-06-14T15:26:47;94810.56;;;20.90;85.59
47763;BME280;33526;42.690;23.322;2023-06-14T15:29:13;94803.97;;;20.69;83.81
47763;BME280;33526;42.690;23.322;2023-06-14T15:31:40;94802.25;;;20.66;85.03
47763;BME280;33526;42.690;23.322;2023-06-14T15:34:05;94783.41;;;20.49;88.24
47763;BME280;33526;42.690;23.322;2023-06-14T15:36:31;94786.06;;;20.28;84.83
47763;BME280;33526;42.690;23.322;2023-06-14T15:38:56;94816.88;;;20.37;84.20